KPSM/PSM METAR and TAF weather

Enter ICAO airport designator
Station Type Date Time Source
KPSM METAR 2019/11/18 11:47 UTC NOAA

KPSM 181147Z 36010KT 8SM OVC015 01/M07 A2998 RMK AO2A SLP156


Station Type Date Time Source
KPSM Decoded METAR 2019/11/18 11:47 UTC NOAA

Pease Air Force Base / Portsmouth, NH, United States (KPSM) 43-05N 070-49W
Nov 18, 2019 - 06:47 AM EST / 2019.11.18 1147 UTC
Wind: from the N (360 degrees) at 12 MPH (10 KT):0
Visibility: 8 mile(s):0
Sky conditions: overcast
Temperature: 33 F (1 C)
Windchill: 24 F (-4 C):1
Dew Point: 19 F (-7 C)
Relative Humidity: 55%
Pressure (altimeter): 29.98 in. Hg (1015 hPa)
ob: KPSM 181147Z 36010KT 8SM OVC015 01/M07 A2998 RMK AO2A SLP156
cycle: 12

Station Type Date Time Source
KPSM TAF 2019/11/18 11:24 UTC NOAA

TAF
AMD KPSM 181121Z 1811/1912 01010KT P6SM -DZ OVC015
FM181600 36012KT 4SM -RA OVC008
FM181900 36014KT 2SM -RA OVC003

Example: see airport list